Terminal Aerodrome Forecast
Issued by NWS Sioux Falls, SD

Home | Current Version | Previous Version | Graphics & Text | Print | Product List | Glossary On
Versions: 1 2 3 4 5 6 7 8 9 10 11 12 13 14 15 16
000
FTUS43 KFSD 190520
TAFFSD
TAF
KFSD 190520Z 1906/2006 19011KT P6SM BKN250
     FM190900 19011KT P6SM BKN200 WS013/23044KT
     FM191300 21010KT P6SM BKN200
     FM191900 28011KT P6SM SKC
     FM192300 34005KT P6SM SKC=

USA.gov is the U.S. government's official web portal to all federal, state and local government web resources and services.